sensor_id;sensor_type;location;lat;lon;timestamp;pressure;altitude;pressure_sealevel;temperature;humidity
12471;BME280;36499;46.484;13.832;2023-08-24T00:01:33;93578.22;;;20.27;99.25
12471;BME280;36499;46.484;13.832;2023-08-24T00:04:00;93573.94;;;20.16;99.98
12471;BME280;36499;46.484;13.832;2023-08-24T00:06:27;93578.13;;;20.07;100.00
12471;BME280;36499;46.484;13.832;2023-08-24T00:08:54;93578.13;;;20.07;100.00
12471;BME280;36499;46.484;13.832;2023-08-24T00:11:21;93583.66;;;20.00;100.00
12471;BME280;36499;46.484;13.832;2023-08-24T00:13:50;93580.72;;;19.97;100.00
12471;BME280;36499;46.484;13.832;2023-08-24T00:16:18;93573.84;;;19.96;100.00
12471;BME280;36499;46.484;13.832;2023-08-24T00:18:46;93574.56;;;19.86;100.00
12471;BME280;36499;46.484;13.832;2023-08-24T00:21:14;93578.06;;;19.92;100.00
12471;BME280;36499;46.484;13.832;2023-08-24T00:23:42;93569.56;;;19.90;100.00
12471;BME280;36499;46.484;13.832;2023-08-24T00:26:10;93576.94;;;19.83;100.00
12471;BME280;36499;46.484;13.832;2023-08-24T00:28:37;93577.16;;;19.76;100.00
12471;BME280;36499;46.484;13.832;2023-08-24T00:31:05;93568.72;;;19.79;100.00
12471;BME280;36499;46.484;13.832;2023-08-24T00:33:32;93572.41;;;19.73;100.00
12471;BME280;36499;46.484;13.832;2023-08-24T00:36:00;93565.50;;;19.72;100.00
12471;BME280;36499;46.484;13.832;2023-08-24T00:38:27;93575.56;;;19.70;100.00
12471;BME280;36499;46.484;13.832;2023-08-24T00:40:55;93564.41;;;19.68;100.00
12471;BME280;36499;46.484;13.832;2023-08-24T00:43:24;93570.19;;;19.60;100.00
12471;BME280;36499;46.484;13.832;2023-08-24T00:45:53;93572.34;;;19.63;100.00
12471;BME280;36499;46.484;13.832;2023-08-24T00:48:23;93568.06;;;19.57;100.00
12471;BME280;36499;46.484;13.832;2023-08-24T00:50:54;93561.16;;;19.56;100.00
12471;BME280;36499;46.484;13.832;2023-08-24T00:53:24;93567.53;;;19.55;100.00
12471;BME280;36499;46.484;13.832;2023-08-24T00:55:52;93566.44;;;19.51;100.00
12471;BME280;36499;46.484;13.832;2023-08-24T00:58:20;93564.81;;;19.45;100.00
12471;BME280;36499;46.484;13.832;2023-08-24T01:00:47;93568.25;;;19.45;100.00
12471;BME280;36499;46.484;13.832;2023-08-24T01:03:15;93566.69;;;19.49;100.00
12471;BME280;36499;46.484;13.832;2023-08-24T01:05:44;93561.22;;;19.29;100.00
12471;BME280;36499;46.484;13.832;2023-08-24T01:08:11;93566.31;;;19.36;100.00
12471;BME280;36499;46.484;13.832;2023-08-24T01:10:48;93570.63;;;19.42;100.00
12471;BME280;36499;46.484;13.832;2023-08-24T01:13:27;93569.22;;;19.34;100.00
12471;BME280;36499;46.484;13.832;2023-08-24T01:16:07;93565.75;;;19.29;100.00
12471;BME280;36499;46.484;13.832;2023-08-24T01:18:37;93572.66;;;19.35;100.00
12471;BME280;36499;46.484;13.832;2023-08-24T01:21:07;93562.59;;;19.37;100.00
12471;BME280;36499;46.484;13.832;2023-08-24T01:23:46;93570.00;;;19.35;100.00
12471;BME280;36499;46.484;13.832;2023-08-24T01:26:20;93567.84;;;19.27;100.00
12471;BME280;36499;46.484;13.832;2023-08-24T01:28:48;93565.81;;;19.39;100.00
12471;BME280;36499;46.484;13.832;2023-08-24T01:31:16;93568.38;;;19.29;100.00
12471;BME280;36499;46.484;13.832;2023-08-24T01:33:45;93563.63;;;19.31;100.00
12471;BME280;36499;46.484;13.832;2023-08-24T01:36:15;93566.75;;;19.23;100.00
12471;BME280;36499;46.484;13.832;2023-08-24T01:38:45;93557.19;;;19.16;100.00
12471;BME280;36499;46.484;13.832;2023-08-24T01:41:22;93567.31;;;19.25;100.00
12471;BME280;36499;46.484;13.832;2023-08-24T01:43:54;93566.69;;;19.17;100.00
12471;BME280;36499;46.484;13.832;2023-08-24T01:46:25;93560.75;;;19.32;100.00
12471;BME280;36499;46.484;13.832;2023-08-24T01:48:54;93563.56;;;19.21;100.00
12471;BME280;36499;46.484;13.832;2023-08-24T01:51:23;93552.44;;;19.18;100.00
12471;BME280;36499;46.484;13.832;2023-08-24T01:53:52;93557.66;;;19.08;100.00
12471;BME280;36499;46.484;13.832;2023-08-24T01:56:21;93559.38;;;19.25;100.00
12471;BME280;36499;46.484;13.832;2023-08-24T01:58:48;93558.75;;;19.17;100.00
12471;BME280;36499;46.484;13.832;2023-08-24T02:01:15;93559.56;;;19.13;100.00
12471;BME280;36499;46.484;13.832;2023-08-24T02:03:42;93553.00;;;19.21;100.00
12471;BME280;36499;46.484;13.832;2023-08-24T02:06:09;93553.47;;;19.17;100.00
12471;BME280;36499;46.484;13.832;2023-08-24T02:08:36;93550.63;;;19.24;100.00
12471;BME280;36499;46.484;13.832;2023-08-24T02:11:03;93555.94;;;19.24;100.00
12471;BME280;36499;46.484;13.832;2023-08-24T02:13:32;93552.78;;;19.27;100.00
12471;BME280;36499;46.484;13.832;2023-08-24T02:16:03;93556.16;;;19.23;100.00
12471;BME280;36499;46.484;13.832;2023-08-24T02:18:30;93549.25;;;19.16;100.00
12471;BME280;36499;46.484;13.832;2023-08-24T02:20:57;93550.81;;;19.12;100.00
12471;BME280;36499;46.484;13.832;2023-08-24T02:23:24;93546.06;;;19.14;100.00
12471;BME280;36499;46.484;13.832;2023-08-24T02:25:51;93544.50;;;19.13;100.00
12471;BME280;36499;46.484;13.832;2023-08-24T02:28:18;93540.41;;;19.01;100.00
12471;BME280;36499;46.484;13.832;2023-08-24T02:30:47;93541.97;;;18.97;100.00
12471;BME280;36499;46.484;13.832;2023-08-24T02:33:14;93544.06;;;18.95;100.00
12471;BME280;36499;46.484;13.832;2023-08-24T02:35:41;93537.78;;;19.01;100.00
12471;BME280;36499;46.484;13.832;2023-08-24T02:38:09;93542.78;;;18.97;100.00
12471;BME280;36499;46.484;13.832;2023-08-24T02:40:36;93528.00;;;19.01;100.00
12471;BME280;36499;46.484;13.832;2023-08-24T02:43:03;93531.09;;;18.93;100.00
12471;BME280;36499;46.484;13.832;2023-08-24T02:45:30;93538.00;;;18.94;100.00
12471;BME280;36499;46.484;13.832;2023-08-24T02:47:59;93534.75;;;18.87;100.00
12471;BME280;36499;46.484;13.832;2023-08-24T02:50:26;93538.69;;;18.85;100.00
12471;BME280;36499;46.484;13.832;2023-08-24T02:52:53;93532.16;;;18.92;100.00
12471;BME280;36499;46.484;13.832;2023-08-24T02:55:20;93534.50;;;18.89;100.00
12471;BME280;36499;46.484;13.832;2023-08-24T02:57:47;93530.03;;;18.89;100.00
12471;BME280;36499;46.484;13.832;2023-08-24T03:00:15;93526.81;;;18.87;100.00
12471;BME280;36499;46.484;13.832;2023-08-24T03:02:42;93523.06;;;18.78;100.00
12471;BME280;36499;46.484;13.832;2023-08-24T03:05:11;93521.38;;;18.67;100.00
12471;BME280;36499;46.484;13.832;2023-08-24T03:07:38;93523.53;;;18.70;100.00
12471;BME280;36499;46.484;13.832;2023-08-24T03:10:06;93519.31;;;18.74;100.00
12471;BME280;36499;46.484;13.832;2023-08-24T03:12:33;93524.06;;;18.72;100.00
12471;BME280;36499;46.484;13.832;2023-08-24T03:15:00;93523.53;;;18.70;100.00
12471;BME280;36499;46.484;13.832;2023-08-24T03:17:28;93518.75;;;18.72;100.00
12471;BME280;36499;46.484;13.832;2023-08-24T03:19:55;93524.25;;;18.65;100.00
12471;BME280;36499;46.484;13.832;2023-08-24T03:22:23;93521.38;;;18.67;100.00
12471;BME280;36499;46.484;13.832;2023-08-24T03:24:50;93526.97;;;18.71;100.00
12471;BME280;36499;46.484;13.832;2023-08-24T03:27:17;93524.56;;;18.69;100.00
12471;BME280;36499;46.484;13.832;2023-08-24T03:29:44;93527.00;;;18.76;100.00
12471;BME280;36499;46.484;13.832;2023-08-24T03:32:11;93518.53;;;18.74;100.00
12471;BME280;36499;46.484;13.832;2023-08-24T03:34:38;93521.16;;;18.74;100.00
12471;BME280;36499;46.484;13.832;2023-08-24T03:37:05;93520.88;;;18.70;100.00
12471;BME280;36499;46.484;13.832;2023-08-24T03:39:36;93525.13;;;18.71;100.00
12471;BME280;36499;46.484;13.832;2023-08-24T03:42:04;93524.78;;;18.62;100.00
12471;BME280;36499;46.484;13.832;2023-08-24T03:44:31;93528.16;;;18.58;100.00
12471;BME280;36499;46.484;13.832;2023-08-24T03:46:58;93526.56;;;18.57;100.00
12471;BME280;36499;46.484;13.832;2023-08-24T03:49:25;93524.72;;;18.57;100.00
12471;BME280;36499;46.484;13.832;2023-08-24T03:51:52;93528.38;;;18.51;100.00
12471;BME280;36499;46.484;13.832;2023-08-24T03:54:19;93520.34;;;18.46;100.00
12471;BME280;36499;46.484;13.832;2023-08-24T03:56:48;93524.31;;;18.44;100.00
12471;BME280;36499;46.484;13.832;2023-08-24T03:59:15;93531.94;;;18.40;100.00
12471;BME280;36499;46.484;13.832;2023-08-24T04:01:42;93531.22;;;18.50;100.00
12471;BME280;36499;46.484;13.832;2023-08-24T04:04:09;93528.72;;;18.38;100.00
12471;BME280;36499;46.484;13.832;2023-08-24T04:06:36;93527.91;;;18.33;100.00
12471;BME280;36499;46.484;13.832;2023-08-24T04:09:05;93529.50;;;18.34;100.00
12471;BME280;36499;46.484;13.832;2023-08-24T04:11:32;93530.53;;;18.33;100.00
12471;BME280;36499;46.484;13.832;2023-08-24T04:14:00;93528.94;;;18.32;100.00
12471;BME280;36499;46.484;13.832;2023-08-24T04:16:28;93531.34;;;18.33;100.00
12471;BME280;36499;46.484;13.832;2023-08-24T04:18:55;93525.03;;;18.39;100.00
12471;BME280;36499;46.484;13.832;2023-08-24T04:21:22;93531.03;;;18.30;100.00
12471;BME280;36499;46.484;13.832;2023-08-24T04:23:49;93523.66;;;18.32;100.00
12471;BME280;36499;46.484;13.832;2023-08-24T04:26:16;93530.16;;;18.24;100.00
12471;BME280;36499;46.484;13.832;2023-08-24T04:28:43;93528.41;;;18.30;100.00
12471;BME280;36499;46.484;13.832;2023-08-24T04:31:11;93538.16;;;18.29;100.00
12471;BME280;36499;46.484;13.832;2023-08-24T04:33:38;93537.88;;;18.31;100.00
12471;BME280;36499;46.484;13.832;2023-08-24T04:36:06;93538.19;;;18.34;100.00
12471;BME280;36499;46.484;13.832;2023-08-24T04:38:33;93543.47;;;18.34;100.00
12471;BME280;36499;46.484;13.832;2023-08-24T04:41:00;93540.50;;;18.26;100.00
12471;BME280;36499;46.484;13.832;2023-08-24T04:43:27;93541.03;;;18.28;100.00
12471;BME280;36499;46.484;13.832;2023-08-24T04:45:55;93541.28;;;18.26;100.00
12471;BME280;36499;46.484;13.832;2023-08-24T04:48:25;93540.53;;;18.31;100.00
12471;BME280;36499;46.484;13.832;2023-08-24T04:50:52;93540.50;;;18.26;100.00
12471;BME280;36499;46.484;13.832;2023-08-24T04:53:22;93544.78;;;18.32;100.00
12471;BME280;36499;46.484;13.832;2023-08-24T04:55:49;93549.53;;;18.35;100.00
12471;BME280;36499;46.484;13.832;2023-08-24T04:58:16;93553.06;;;18.40;100.00
12471;BME280;36499;46.484;13.832;2023-08-24T05:00:43;93553.34;;;18.44;100.00
12471;BME280;36499;46.484;13.832;2023-08-24T05:03:11;93556.53;;;18.46;100.00
12471;BME280;36499;46.484;13.832;2023-08-24T05:05:40;93552.00;;;18.41;100.00
12471;BME280;36499;46.484;13.832;2023-08-24T05:08:07;93560.25;;;18.50;100.00
12471;BME280;36499;46.484;13.832;2023-08-24T05:10:36;93561.41;;;18.54;100.00
12471;BME280;36499;46.484;13.832;2023-08-24T05:13:03;93558.75;;;18.54;100.00
12471;BME280;36499;46.484;13.832;2023-08-24T05:15:31;93560.47;;;18.43;100.00
12471;BME280;36499;46.484;13.832;2023-08-24T05:17:58;93559.78;;;18.53;100.00
12471;BME280;36499;46.484;13.832;2023-08-24T05:20:25;93561.75;;;18.62;100.00
12471;BME280;36499;46.484;13.832;2023-08-24T05:22:54;93559.91;;;18.63;100.00
12471;BME280;36499;46.484;13.832;2023-08-24T05:25:21;93563.88;;;18.65;100.00
12471;BME280;36499;46.484;13.832;2023-08-24T05:27:49;93555.44;;;18.68;100.00
12471;BME280;36499;46.484;13.832;2023-08-24T05:30:16;93555.56;;;18.79;100.00
12471;BME280;36499;46.484;13.832;2023-08-24T05:32:44;93558.53;;;18.87;100.00
12471;BME280;36499;46.484;13.832;2023-08-24T05:35:11;93551.50;;;18.98;100.00
12471;BME280;36499;46.484;13.832;2023-08-24T05:37:38;93559.22;;;19.04;100.00
12471;BME280;36499;46.484;13.832;2023-08-24T05:40:08;93554.22;;;19.08;100.00
12471;BME280;36499;46.484;13.832;2023-08-24T05:42:35;93554.84;;;19.20;100.00
12471;BME280;36499;46.484;13.832;2023-08-24T05:45:03;93555.16;;;19.29;100.00
12471;BME280;36499;46.484;13.832;2023-08-24T05:47:30;93558.84;;;19.28;100.00
12471;BME280;36499;46.484;13.832;2023-08-24T05:49:57;93549.44;;;19.42;99.86
12471;BME280;36499;46.484;13.832;2023-08-24T05:52:24;93549.50;;;19.52;98.85
12471;BME280;36499;46.484;13.832;2023-08-24T05:54:51;93549.81;;;19.60;98.69
12471;BME280;36499;46.484;13.832;2023-08-24T05:57:19;93551.69;;;19.60;98.68
12471;BME280;36499;46.484;13.832;2023-08-24T05:59:47;93546.47;;;19.70;98.77
12471;BME280;36499;46.484;13.832;2023-08-24T06:02:14;93547.19;;;19.60;98.83
12471;BME280;36499;46.484;13.832;2023-08-24T06:04:41;93547.31;;;19.81;97.50
12471;BME280;36499;46.484;13.832;2023-08-24T06:07:08;93543.91;;;19.95;97.32
12471;BME280;36499;46.484;13.832;2023-08-24T06:09:35;93545.56;;;20.06;96.89
12471;BME280;36499;46.484;13.832;2023-08-24T06:12:03;93534.75;;;20.18;96.66
12471;BME280;36499;46.484;13.832;2023-08-24T06:14:31;93537.22;;;20.35;96.81
12471;BME280;36499;46.484;13.832;2023-08-24T06:16:58;93535.91;;;20.47;95.18
12471;BME280;36499;46.484;13.832;2023-08-24T06:19:25;93528.25;;;20.56;94.37
12471;BME280;36499;46.484;13.832;2023-08-24T06:21:52;93533.28;;;20.63;93.44
12471;BME280;36499;46.484;13.832;2023-08-24T06:24:20;93532.50;;;20.82;93.72
12471;BME280;36499;46.484;13.832;2023-08-24T06:26:47;93528.81;;;20.93;92.49
12471;BME280;36499;46.484;13.832;2023-08-24T06:29:14;93527.72;;;20.89;92.71
12471;BME280;36499;46.484;13.832;2023-08-24T06:31:43;93524.56;;;20.97;91.70
12471;BME280;36499;46.484;13.832;2023-08-24T06:34:10;93524.06;;;21.21;90.68
12471;BME280;36499;46.484;13.832;2023-08-24T06:36:37;93529.34;;;21.36;90.29
12471;BME280;36499;46.484;13.832;2023-08-24T06:39:04;93527.22;;;21.53;89.71
12471;BME280;36499;46.484;13.832;2023-08-24T06:41:33;93520.25;;;21.62;89.66
12471;BME280;36499;46.484;13.832;2023-08-24T06:44:00;93518.63;;;21.81;88.42
12471;BME280;36499;46.484;13.832;2023-08-24T06:46:29;93515.66;;;21.88;87.90
12471;BME280;36499;46.484;13.832;2023-08-24T06:48:57;93520.69;;;22.05;86.10
12471;BME280;36499;46.484;13.832;2023-08-24T06:51:25;93517.50;;;22.08;85.53
12471;BME280;36499;46.484;13.832;2023-08-24T06:53:52;93513.78;;;22.09;84.73
12471;BME280;36499;46.484;13.832;2023-08-24T06:56:19;93514.19;;;22.26;84.10
12471;BME280;36499;46.484;13.832;2023-08-24T06:58:48;93517.81;;;22.45;83.13
12471;BME280;36499;46.484;13.832;2023-08-24T07:01:15;93516.19;;;22.54;82.73
12471;BME280;36499;46.484;13.832;2023-08-24T07:03:42;93511.28;;;22.76;81.67
12471;BME280;36499;46.484;13.832;2023-08-24T07:06:11;93512.28;;;22.85;80.62
12471;BME280;36499;46.484;13.832;2023-08-24T07:08:38;93515.63;;;23.01;79.66
12471;BME280;36499;46.484;13.832;2023-08-24T07:11:05;93513.72;;;23.07;77.85
12471;BME280;36499;46.484;13.832;2023-08-24T07:13:32;93513.06;;;23.20;76.43
12471;BME280;36499;46.484;13.832;2023-08-24T07:16:00;93513.66;;;23.46;74.44
12471;BME280;36499;46.484;13.832;2023-08-24T07:18:28;93497.31;;;23.57;74.30
12471;BME280;36499;46.484;13.832;2023-08-24T07:20:55;93502.97;;;23.74;72.99
12471;BME280;36499;46.484;13.832;2023-08-24T07:23:24;93497.41;;;23.95;71.66
12471;BME280;36499;46.484;13.832;2023-08-24T07:25:51;93494.13;;;24.03;71.81
12471;BME280;36499;46.484;13.832;2023-08-24T07:28:18;93491.59;;;24.16;71.43
12471;BME280;36499;46.484;13.832;2023-08-24T07:30:45;93491.88;;;24.15;72.36
12471;BME280;36499;46.484;13.832;2023-08-24T07:33:12;93498.63;;;24.31;71.77
12471;BME280;36499;46.484;13.832;2023-08-24T07:35:39;93488.66;;;24.13;70.02
12471;BME280;36499;46.484;13.832;2023-08-24T07:38:06;93489.94;;;24.39;69.90
12471;BME280;36499;46.484;13.832;2023-08-24T07:40:35;93486.16;;;24.45;70.15
12471;BME280;36499;46.484;13.832;2023-08-24T07:43:03;93492.19;;;24.69;68.89
12471;BME280;36499;46.484;13.832;2023-08-24T07:45:30;93491.84;;;24.76;68.24
12471;BME280;36499;46.484;13.832;2023-08-24T07:47:57;93490.63;;;24.87;68.83
12471;BME280;36499;46.484;13.832;2023-08-24T07:50:24;93485.44;;;24.96;68.26
12471;BME280;36499;46.484;13.832;2023-08-24T07:52:51;93489.97;;;24.95;67.72
12471;BME280;36499;46.484;13.832;2023-08-24T07:55:18;93487.72;;;25.02;67.38
12471;BME280;36499;46.484;13.832;2023-08-24T07:57:47;93488.94;;;25.10;66.03
12471;BME280;36499;46.484;13.832;2023-08-24T08:00:15;93486.88;;;25.20;65.48
12471;BME280;36499;46.484;13.832;2023-08-24T08:02:42;93490.34;;;25.21;65.10
12471;BME280;36499;46.484;13.832;2023-08-24T08:05:09;93487.16;;;25.51;65.48
12471;BME280;36499;46.484;13.832;2023-08-24T08:07:38;93486.91;;;25.66;63.91
12471;BME280;36499;46.484;13.832;2023-08-24T08:10:06;93483.84;;;25.87;63.52
12471;BME280;36499;46.484;13.832;2023-08-24T08:12:33;93485.41;;;25.88;63.21
12471;BME280;36499;46.484;13.832;2023-08-24T08:15:02;93483.44;;;26.07;61.68
12471;BME280;36499;46.484;13.832;2023-08-24T08:17:29;93480.47;;;26.22;60.31
12471;BME280;36499;46.484;13.832;2023-08-24T08:19:59;93488.88;;;26.43;60.20
12471;BME280;36499;46.484;13.832;2023-08-24T08:22:26;93489.94;;;26.55;59.00
12471;BME280;36499;46.484;13.832;2023-08-24T08:24:53;93490.88;;;26.73;58.42
12471;BME280;36499;46.484;13.832;2023-08-24T08:27:22;93487.16;;;26.83;59.02
12471;BME280;36499;46.484;13.832;2023-08-24T08:29:49;93490.16;;;26.81;58.46
12471;BME280;36499;46.484;13.832;2023-08-24T08:32:18;93491.22;;;26.94;58.40
12471;BME280;36499;46.484;13.832;2023-08-24T08:34:45;93489.03;;;26.96;58.21
12471;BME280;36499;46.484;13.832;2023-08-24T08:37:12;93487.75;;;27.15;57.18
12471;BME280;36499;46.484;13.832;2023-08-24T08:39:39;93489.97;;;27.44;57.69
12471;BME280;36499;46.484;13.832;2023-08-24T08:42:11;93484.03;;;27.47;56.79
12471;BME280;36499;46.484;13.832;2023-08-24T08:44:41;93485.16;;;27.55;57.17
12471;BME280;36499;46.484;13.832;2023-08-24T08:47:10;93479.81;;;27.55;55.81
12471;BME280;36499;46.484;13.832;2023-08-24T08:49:40;93482.41;;;27.69;56.59
12471;BME280;36499;46.484;13.832;2023-08-24T08:52:10;93470.69;;;27.95;56.49
12471;BME280;36499;46.484;13.832;2023-08-24T08:54:37;93472.75;;;27.98;53.95
12471;BME280;36499;46.484;13.832;2023-08-24T08:57:05;93471.31;;;27.92;52.79
12471;BME280;36499;46.484;13.832;2023-08-24T08:59:33;93470.50;;;28.31;52.51
12471;BME280;36499;46.484;13.832;2023-08-24T09:02:03;93467.19;;;28.43;52.20
12471;BME280;36499;46.484;13.832;2023-08-24T09:04:33;93465.50;;;28.64;51.49
12471;BME280;36499;46.484;13.832;2023-08-24T09:07:02;93469.50;;;28.84;52.67
12471;BME280;36499;46.484;13.832;2023-08-24T09:09:35;93468.84;;;29.13;52.50
12471;BME280;36499;46.484;13.832;2023-08-24T09:12:05;93460.28;;;29.36;52.59
12471;BME280;36499;46.484;13.832;2023-08-24T09:14:34;93466.38;;;29.63;54.13
12471;BME280;36499;46.484;13.832;2023-08-24T09:17:01;93461.56;;;29.94;52.99
12471;BME280;36499;46.484;13.832;2023-08-24T09:19:29;93460.44;;;29.95;49.76
12471;BME280;36499;46.484;13.832;2023-08-24T09:21:57;93459.31;;;30.25;51.08
12471;BME280;36499;46.484;13.832;2023-08-24T09:24:31;93451.72;;;30.27;50.65
12471;BME280;36499;46.484;13.832;2023-08-24T09:26:58;93450.09;;;30.35;49.39
12471;BME280;36499;46.484;13.832;2023-08-24T09:29:26;93452.44;;;30.16;49.90
12471;BME280;36499;46.484;13.832;2023-08-24T09:31:54;93445.94;;;30.46;51.34
12471;BME280;36499;46.484;13.832;2023-08-24T09:34:24;93439.59;;;30.51;50.71
12471;BME280;36499;46.484;13.832;2023-08-24T09:36:53;93446.59;;;30.64;50.56
12471;BME280;36499;46.484;13.832;2023-08-24T09:39:21;93442.91;;;30.68;49.74
12471;BME280;36499;46.484;13.832;2023-08-24T09:41:50;93442.38;;;30.75;49.48
12471;BME280;36499;46.484;13.832;2023-08-24T09:44:18;93432.94;;;30.69;49.78
12471;BME280;36499;46.484;13.832;2023-08-24T09:46:46;93436.50;;;30.81;50.68
12471;BME280;36499;46.484;13.832;2023-08-24T09:49:14;93439.88;;;30.90;50.16
12471;BME280;36499;46.484;13.832;2023-08-24T09:51:41;93427.34;;;30.94;50.03
12471;BME280;36499;46.484;13.832;2023-08-24T09:54:11;93425.63;;;31.11;50.54
12471;BME280;36499;46.484;13.832;2023-08-24T09:56:40;93417.47;;;31.19;50.65
12471;BME280;36499;46.484;13.832;2023-08-24T09:59:14;93415.94;;;31.30;50.61
12471;BME280;36499;46.484;13.832;2023-08-24T10:01:45;93419.38;;;31.19;49.28
12471;BME280;36499;46.484;13.832;2023-08-24T10:04:17;93413.34;;;31.34;50.57
12471;BME280;36499;46.484;13.832;2023-08-24T10:06:50;93412.34;;;31.26;50.61
12471;BME280;36499;46.484;13.832;2023-08-24T10:09:25;93406.06;;;31.34;50.16
12471;BME280;36499;46.484;13.832;2023-08-24T10:12:00;93399.75;;;31.30;50.53
12471;BME280;36499;46.484;13.832;2023-08-24T10:14:35;93403.84;;;31.49;50.67
12471;BME280;36499;46.484;13.832;2023-08-24T10:17:09;93404.56;;;31.58;51.32
12471;BME280;36499;46.484;13.832;2023-08-24T10:19:37;93391.19;;;31.73;51.80
12471;BME280;36499;46.484;13.832;2023-08-24T10:22:07;93392.19;;;31.81;50.83
12471;BME280;36499;46.484;13.832;2023-08-24T10:24:35;93381.28;;;31.77;49.62
12471;BME280;36499;46.484;13.832;2023-08-24T10:27:04;93382.53;;;31.68;50.68
12471;BME280;36499;46.484;13.832;2023-08-24T10:29:33;93377.38;;;31.75;50.58
12471;BME280;36499;46.484;13.832;2023-08-24T10:32:02;93383.09;;;31.85;50.40
12471;BME280;36499;46.484;13.832;2023-08-24T10:34:29;93379.16;;;31.59;51.95
12471;BME280;36499;46.484;13.832;2023-08-24T10:36:57;93379.75;;;31.76;50.16
12471;BME280;36499;46.484;13.832;2023-08-24T10:39:27;93377.16;;;31.92;49.53
12471;BME280;36499;46.484;13.832;2023-08-24T10:41:55;93375.00;;;31.98;49.81
12471;BME280;36499;46.484;13.832;2023-08-24T10:44:33;93369.19;;;31.83;49.72
12471;BME280;36499;46.484;13.832;2023-08-24T10:47:14;93357.63;;;32.07;50.32
12471;BME280;36499;46.484;13.832;2023-08-24T10:49:43;93355.66;;;32.20;48.85
12471;BME280;36499;46.484;13.832;2023-08-24T10:52:24;93349.69;;;32.26;48.16
12471;BME280;36499;46.484;13.832;2023-08-24T10:54:52;93360.72;;;32.33;48.15
12471;BME280;36499;46.484;13.832;2023-08-24T10:57:23;93353.44;;;31.98;48.61
12471;BME280;36499;46.484;13.832;2023-08-24T11:00:04;93357.72;;;31.86;48.92
12471;BME280;36499;46.484;13.832;2023-08-24T11:02:44;93347.00;;;32.02;48.87
12471;BME280;36499;46.484;13.832;2023-08-24T11:05:20;93346.88;;;32.23;47.67
12471;BME280;36499;46.484;13.832;2023-08-24T11:07:49;93337.97;;;32.34;47.92
12471;BME280;36499;46.484;13.832;2023-08-24T11:10:18;93338.97;;;32.42;48.63
12471;BME280;36499;46.484;13.832;2023-08-24T11:13:07;93339.75;;;32.43;48.06
12471;BME280;36499;46.484;13.832;2023-08-24T11:15:39;93339.72;;;32.55;49.64
12471;BME280;36499;46.484;13.832;2023-08-24T11:18:22;93335.56;;;32.17;48.28
12471;BME280;36499;46.484;13.832;2023-08-24T11:20:53;93339.56;;;32.35;48.44
12471;BME280;36499;46.484;13.832;2023-08-24T11:23:22;93332.34;;;32.40;48.10
12471;BME280;36499;46.484;13.832;2023-08-24T11:25:51;93335.00;;;32.52;47.54
12471;BME280;36499;46.484;13.832;2023-08-24T11:28:21;93336.13;;;32.63;48.04
12471;BME280;36499;46.484;13.832;2023-08-24T11:30:50;93333.53;;;32.54;49.46
12471;BME280;36499;46.484;13.832;2023-08-24T11:33:28;93333.75;;;32.61;48.35
12471;BME280;36499;46.484;13.832;2023-08-24T11:35:57;93336.25;;;32.82;48.80
12471;BME280;36499;46.484;13.832;2023-08-24T11:38:24;93332.53;;;32.87;47.00
12471;BME280;36499;46.484;13.832;2023-08-24T11:40:51;93326.72;;;33.00;47.96
12471;BME280;36499;46.484;13.832;2023-08-24T11:43:25;93328.72;;;33.03;47.24
12471;BME280;36499;46.484;13.832;2023-08-24T11:45:54;93329.59;;;33.07;47.72
12471;BME280;36499;46.484;13.832;2023-08-24T11:48:25;93315.19;;;33.31;47.31
12471;BME280;36499;46.484;13.832;2023-08-24T11:50:55;93311.94;;;33.25;45.74
12471;BME280;36499;46.484;13.832;2023-08-24T11:53:22;93309.13;;;33.06;46.65
12471;BME280;36499;46.484;13.832;2023-08-24T11:55:52;93317.88;;;33.15;46.30
12471;BME280;36499;46.484;13.832;2023-08-24T11:58:19;93307.06;;;33.15;46.05
12471;BME280;36499;46.484;13.832;2023-08-24T12:00:47;93314.47;;;33.18;46.44
12471;BME280;36499;46.484;13.832;2023-08-24T12:03:15;93300.44;;;33.28;46.93
12471;BME280;36499;46.484;13.832;2023-08-24T12:05:43;93308.31;;;32.90;47.99
12471;BME280;36499;46.484;13.832;2023-08-24T12:08:11;93299.84;;;32.92;46.81
12471;BME280;36499;46.484;13.832;2023-08-24T12:10:42;93303.44;;;32.96;47.36
12471;BME280;36499;46.484;13.832;2023-08-24T12:13:11;93298.00;;;32.80;46.97
12471;BME280;36499;46.484;13.832;2023-08-24T12:15:40;93295.91;;;32.73;48.44
12471;BME280;36499;46.484;13.832;2023-08-24T12:18:09;93289.56;;;32.97;47.24
12471;BME280;36499;46.484;13.832;2023-08-24T12:20:36;93293.19;;;32.73;47.21
12471;BME280;36499;46.484;13.832;2023-08-24T12:23:07;93287.06;;;33.04;47.78
12471;BME280;36499;46.484;13.832;2023-08-24T12:25:37;93292.13;;;33.06;46.45
12471;BME280;36499;46.484;13.832;2023-08-24T12:28:10;93282.19;;;33.10;48.68
12471;BME280;36499;46.484;13.832;2023-08-24T12:30:48;93285.13;;;33.05;48.04
12471;BME280;36499;46.484;13.832;2023-08-24T12:33:24;93281.63;;;33.32;47.06
12471;BME280;36499;46.484;13.832;2023-08-24T12:35:52;93279.00;;;33.36;46.41
12471;BME280;36499;46.484;13.832;2023-08-24T12:38:23;93270.50;;;33.37;45.99
12471;BME280;36499;46.484;13.832;2023-08-24T12:40:50;93274.09;;;33.25;45.91
12471;BME280;36499;46.484;13.832;2023-08-24T12:43:17;93270.09;;;33.51;46.07
12471;BME280;36499;46.484;13.832;2023-08-24T12:45:45;93259.25;;;33.51;46.08
12471;BME280;36499;46.484;13.832;2023-08-24T12:48:12;93252.38;;;33.38;46.04
12471;BME280;36499;46.484;13.832;2023-08-24T12:50:39;93255.31;;;33.48;46.24
12471;BME280;36499;46.484;13.832;2023-08-24T12:53:07;93261.91;;;33.32;46.19